Kaisei Maru — JD3114 — position and weather

sailwx.info

Track history (hours):
 
Tides and Currents Weather Stations Pressure Air Temp Water Temp Dewpoint Dewpoint Depression Visibility Wind Speed Wind Dir Waves Ship Positions

Kaisei Maru

Last reported at 2018-Nov-10 12:35 UTC. Time now 2018-Nov-16 15:46 UTC.
Position N 34°41' E 135°17'.

Length 52 m; draft 3.7 m.

Type: Tanker. MMSI: 431001837.

Date/timePositionNaut miles runAvg speedWind from/ knotsBaromVisibWave heightAir tempDewpointWater temp
2018-Nov-10 12:35N 34°41' E 135°17'2 0.5
2018-Nov-10 08:44N 34°39' E 135°18'2 7.6
2018-Nov-10 08:32N 34°37' E 135°18'4 6.9
2018-Nov-10 08:01N 34°34' E 135°19'3 6.6
2018-Nov-10 07:31N 34°31' E 135°19'2 4.8
2018-Nov-10 07:02N 34°28' E 135°20'0 0.0
2018-Nov-10 06:29N 34°28' E 135°20'0 0.0
2018-Nov-10 06:02N 34°28' E 135°20'0 0.0
2018-Nov-10 05:18N 34°28' E 135°20'0 0.3
2018-Nov-10 04:55N 34°28' E 135°20'3 1.8
2018-Nov-10 03:30N 34°26' E 135°19'1 0.9
2018-Nov-10 02:44N 34°26' E 135°19'0 0.1
2018-Nov-10 02:32N 34°26' E 135°19'14 8.3
2018-Nov-10 00:48N 34°40' E 135°15'2 0.1
2018-Nov-09 09:14N 34°41' E 135°12'0 0.0
2018-Nov-09 09:02N 34°41' E 135°12'0 0.0
2018-Nov-09 08:32N 34°41' E 135°12'0 0.0
2018-Nov-09 08:02N 34°41' E 135°12'0 0.0
2018-Nov-09 07:32N 34°41' E 135°12'0 0.0
2018-Nov-09 07:02N 34°41' E 135°12'0 0.0
2018-Nov-09 06:32N 34°41' E 135°12'0 0.0
2018-Nov-09 06:02N 34°41' E 135°12'0 0.0
2018-Nov-09 05:32N 34°41' E 135°12'0 0.0
2018-Nov-09 05:02N 34°41' E 135°12'0 0.0
2018-Nov-09 04:32N 34°41' E 135°12'0 0.0
2018-Nov-09 04:02N 34°41' E 135°12'0 0.0
2018-Nov-09 03:32N 34°41' E 135°12'0 0.0
2018-Nov-09 03:02N 34°41' E 135°12'0 0.0
2018-Nov-09 02:32N 34°41' E 135°12'0 0.0
2018-Nov-09 02:02N 34°41' E 135°12'0 0.0
2018-Nov-09 01:32N 34°41' E 135°12'0 0.0
2018-Nov-09 01:02N 34°41' E 135°12'0 0.0
2018-Nov-09 00:32N 34°41' E 135°12'0 0.0
2018-Nov-09 00:02N 34°41' E 135°12'0 0.0
2018-Nov-08 23:32N 34°41' E 135°12'0 0.0
2018-Nov-08 23:02N 34°41' E 135°12'0 0.0
2018-Nov-08 22:32N 34°41' E 135°12'0 0.0
2018-Nov-08 22:02N 34°41' E 135°12'0 0.0
2018-Nov-08 21:32N 34°41' E 135°12'0 0.0
2018-Nov-08 21:02N 34°41' E 135°12'0 0.0
2018-Nov-08 20:32N 34°41' E 135°12'0 0.0
2018-Nov-08 20:02N 34°41' E 135°12'0 0.0
2018-Nov-08 19:32N 34°41' E 135°12'0 0.0
2018-Nov-08 19:02N 34°41' E 135°12'0 0.0
2018-Nov-08 18:32N 34°41' E 135°12'0 0.0
2018-Nov-08 18:02N 34°41' E 135°12'0 0.0
2018-Nov-08 17:32N 34°41' E 135°12'0 0.0
2018-Nov-08 17:02N 34°41' E 135°12'0 0.0
2018-Nov-08 16:32N 34°41' E 135°12'0 0.0
2018-Nov-08 16:02N 34°41' E 135°12'0 0.0
2018-Nov-08 15:32N 34°41' E 135°12'0 0.0
2018-Nov-08 15:02N 34°41' E 135°12'0 0.0
2018-Nov-08 14:32N 34°41' E 135°12'0 0.0
2018-Nov-08 14:02N 34°41' E 135°12'0 0.0
2018-Nov-08 13:32N 34°41' E 135°12'0 0.0
2018-Nov-08 13:02N 34°41' E 135°12'0 0.0
2018-Nov-08 12:32N 34°41' E 135°12'0 0.0
2018-Nov-08 12:02N 34°41' E 135°12'0 0.0
2018-Nov-08 11:32N 34°41' E 135°12'0 0.0
2018-Nov-08 11:02N 34°41' E 135°12'0 0.0
2018-Nov-08 10:32N 34°41' E 135°12'0 0.0
2018-Nov-08 10:02N 34°41' E 135°12'0 0.0
2018-Nov-08 09:32N 34°41' E 135°12'0 0.2
2018-Nov-08 09:02N 34°41' E 135°12'4 8.6
2018-Nov-08 08:32N 34°38' E 135°17'0 0.6
2018-Nov-08 08:02N 34°39' E 135°16'4 7.7
2018-Nov-08 07:32N 34°41' E 135°13'0 0.0
2018-Nov-08 07:02N 34°41' E 135°13'0 0.0
2018-Nov-08 06:32N 34°41' E 135°13'0 0.0
2018-Nov-08 06:02N 34°41' E 135°13'0 0.0
2018-Nov-08 05:32N 34°41' E 135°13'0 0.5
2018-Nov-08 05:02N 34°41' E 135°13'4 8.6
2018-Nov-08 04:32N 34°41' E 135°18'5 9.1
2018-Nov-08 04:01N 34°42' E 135°24'0 0.6
2018-Nov-08 03:31N 34°42' E 135°24'0 0.0
2018-Nov-07 23:14N 34°42' E 135°23'0 0.4
2018-Nov-07 23:02N 34°42' E 135°24'0 0.8
2018-Nov-07 22:32N 34°42' E 135°24'1 1.5
2018-Nov-07 22:02N 34°41' E 135°23'4 9.0
2018-Nov-07 21:32N 34°41' E 135°18'5 9.3
2018-Nov-07 21:02N 34°41' E 135°12'0 0.4
2018-Nov-07 20:32N 34°41' E 135°12'0 0.0
2018-Nov-07 20:02N 34°41' E 135°12'0 0.0
2018-Nov-07 19:32N 34°41' E 135°12'0 0.0
2018-Nov-07 19:02N 34°41' E 135°12'0 0.0
2018-Nov-07 18:32N 34°41' E 135°12'0 0.0
2018-Nov-07 18:02N 34°41' E 135°12'0 0.0
2018-Nov-07 17:32N 34°41' E 135°12'0 0.0
2018-Nov-07 17:02N 34°41' E 135°12'0 0.0
2018-Nov-07 16:32N 34°41' E 135°12'0 0.0
2018-Nov-07 16:02N 34°41' E 135°12'0 0.0
2018-Nov-07 15:32N 34°41' E 135°12'0 0.0
2018-Nov-07 15:02N 34°41' E 135°12'0 0.0
2018-Nov-07 14:32N 34°41' E 135°12'0 0.0
2018-Nov-07 14:02N 34°41' E 135°12'0 0.0
2018-Nov-07 13:32N 34°41' E 135°12'0 0.0
2018-Nov-07 13:02N 34°41' E 135°12'0 0.0
2018-Nov-07 12:32N 34°41' E 135°12'0 0.0
2018-Nov-07 12:02N 34°41' E 135°12'0 0.0
2018-Nov-07 11:32N 34°41' E 135°12'0 0.0
2018-Nov-07 11:02N 34°41' E 135°12'0 0.0
2018-Nov-07 10:32N 34°41' E 135°12'0 0.0
2018-Nov-07 10:02N 34°41' E 135°12'0 0.0
2018-Nov-07 09:32N 34°41' E 135°12'0 0.0
2018-Nov-07 09:02N 34°41' E 135°12'0 0.0
2018-Nov-07 08:32N 34°41' E 135°12'0 0.0
2018-Nov-07 08:02N 34°41' E 135°12'0 0.0
2018-Nov-07 07:32N 34°41' E 135°12'0 0.0
2018-Nov-07 07:02N 34°41' E 135°12'0 0.0
2018-Nov-07 06:32N 34°41' E 135°12'0 0.0
2018-Nov-07 06:02N 34°41' E 135°12'3 5.9
2018-Nov-07 05:32N 34°40' E 135°15'510.5
2018-Nov-07 05:02N 34°35' E 135°17'510.4
2018-Nov-07 04:32N 34°30' E 135°18'4 0.8
2018-Nov-06 23:30N 34°26' E 135°19'1 3.0
2018-Nov-06 23:02N 34°27' E 135°19'011.2
2018-Nov-06 23:00N 34°28' E 135°19'1110.7
2018-Nov-06 22:00N 34°38' E 135°16'4 8.9
2018-Nov-06 21:30N 34°41' E 135°12'0 0.1
2018-Nov-06 21:03N 34°41' E 135°12'0 0.0
2018-Nov-06 21:00N 34°41' E 135°12'0 0.0
2018-Nov-06 20:30N 34°41' E 135°12'0 0.0
2018-Nov-06 20:03N 34°41' E 135°12'0 0.0
2018-Nov-06 20:00N 34°41' E 135°12'0 0.0
2018-Nov-06 19:30N 34°41' E 135°12'0 0.0
2018-Nov-06 19:03N 34°41' E 135°12'0 0.0
2018-Nov-06 19:00N 34°41' E 135°12'0 0.0
2018-Nov-06 18:30N 34°41' E 135°12'0 0.0
2018-Nov-06 18:03N 34°41' E 135°12'0 0.0
2018-Nov-06 18:00N 34°41' E 135°12'0 0.0
2018-Nov-06 17:30N 34°41' E 135°12'0 0.0
2018-Nov-06 17:03N 34°41' E 135°12'0 0.0
2018-Nov-06 17:00N 34°41' E 135°12'0 0.0
2018-Nov-06 16:30N 34°41' E 135°12'0 0.0
2018-Nov-06 16:03N 34°41' E 135°12'0 0.0
2018-Nov-06 16:00N 34°41' E 135°12'0 0.0
2018-Nov-06 15:30N 34°41' E 135°12'0 0.0
2018-Nov-06 15:03N 34°41' E 135°12'0 0.0
2018-Nov-06 15:00N 34°41' E 135°12'0 0.0
2018-Nov-06 14:30N 34°41' E 135°12'0 0.0
2018-Nov-06 14:03N 34°41' E 135°12'0 0.0
2018-Nov-06 14:00N 34°41' E 135°12'0 0.0
2018-Nov-06 13:30N 34°41' E 135°12'0 0.0
2018-Nov-06 13:03N 34°41' E 135°12'0 0.0
2018-Nov-06 13:00N 34°41' E 135°12'0 0.0
2018-Nov-06 12:30N 34°41' E 135°12'0 0.0
2018-Nov-06 12:03N 34°41' E 135°12'0 0.0
2018-Nov-06 12:00N 34°41' E 135°12'0 0.0
2018-Nov-06 11:30N 34°41' E 135°12'0 0.0
2018-Nov-06 11:03N 34°41' E 135°12'0 0.0
2018-Nov-06 11:00N 34°41' E 135°12'0 0.0
2018-Nov-06 10:30N 34°41' E 135°12'0 0.0
2018-Nov-06 10:03N 34°41' E 135°12'0 0.0
2018-Nov-06 10:00N 34°41' E 135°12'0 0.0
2018-Nov-06 09:30N 34°41' E 135°12'0 0.0
2018-Nov-06 09:03N 34°41' E 135°12'0 0.0
2018-Nov-06 09:00N 34°41' E 135°12'0 0.0
2018-Nov-06 08:30N 34°41' E 135°12'0 0.0
2018-Nov-06 08:03N 34°41' E 135°12'0 0.0
2018-Nov-06 08:00N 34°41' E 135°12'0 0.0
2018-Nov-06 07:30N 34°41' E 135°12'0 0.0
2018-Nov-06 07:03N 34°41' E 135°12'0 0.0
2018-Nov-06 07:00N 34°41' E 135°12'0 0.0
2018-Nov-06 06:30N 34°41' E 135°12'0 0.0
2018-Nov-06 06:03N 34°41' E 135°12'0 0.0
2018-Nov-06 06:00N 34°41' E 135°12'0 0.0
2018-Nov-06 05:30N 34°41' E 135°12'0 0.0
2018-Nov-06 05:03N 34°41' E 135°12'0 0.0
2018-Nov-06 05:00N 34°41' E 135°12'0 0.0
2018-Nov-06 04:30N 34°41' E 135°12'0 0.0
2018-Nov-06 04:03N 34°41' E 135°12'0 0.0
2018-Nov-06 04:00N 34°41' E 135°12'0 0.0
2018-Nov-06 03:30N 34°41' E 135°12'0 0.0
2018-Nov-06 03:03N 34°41' E 135°12'0 0.0
2018-Nov-06 03:00N 34°41' E 135°12'0 0.0
2018-Nov-06 02:30N 34°41' E 135°12'0 0.0
2018-Nov-06 02:03N 34°41' E 135°12'0 0.0
2018-Nov-06 02:00N 34°41' E 135°12'0 0.0
2018-Nov-06 01:30N 34°41' E 135°12'0 0.0
2018-Nov-06 00:30N 34°41' E 135°12'0 0.0
2018-Nov-05 23:30N 34°41' E 135°12'0 0.0
2018-Nov-05 23:03N 34°41' E 135°12'0 0.0
2018-Nov-05 23:00N 34°41' E 135°12'0 0.0
2018-Nov-05 22:30N 34°41' E 135°12'0 0.0
2018-Nov-05 22:03N 34°41' E 135°12'0 0.0
2018-Nov-05 22:00N 34°41' E 135°12'0 0.0
2018-Nov-05 21:30N 34°41' E 135°12'0 0.0
2018-Nov-05 21:03N 34°41' E 135°12'0 0.0
2018-Nov-05 21:00N 34°41' E 135°12'0 0.0
2018-Nov-05 20:30N 34°41' E 135°12'0 0.0
2018-Nov-05 20:03N 34°41' E 135°12'0 0.0
2018-Nov-05 20:00N 34°41' E 135°12'0 0.0
2018-Nov-05 19:30N 34°41' E 135°12'0 0.0
2018-Nov-05 19:03N 34°41' E 135°12'0 0.0
2018-Nov-05 19:00N 34°41' E 135°12'0 0.0
2018-Nov-05 18:30N 34°41' E 135°12'0 0.0
2018-Nov-05 18:03N 34°41' E 135°12'0 0.0
2018-Nov-05 18:00N 34°41' E 135°12'0 0.0
2018-Nov-05 17:30N 34°41' E 135°12'0 0.0
2018-Nov-05 17:03N 34°41' E 135°12'0 0.0
2018-Nov-05 17:00N 34°41' E 135°12'0 0.0
2018-Nov-05 16:30N 34°41' E 135°12'0 0.0
2018-Nov-05 16:03N 34°41' E 135°12'0 0.0
2018-Nov-05 16:00N 34°41' E 135°12'0 0.0
2018-Nov-05 15:30N 34°41' E 135°12'0 0.0
2018-Nov-05 15:03N 34°41' E 135°12'0 0.0
2018-Nov-05 15:00N 34°41' E 135°12'0 0.0
2018-Nov-05 14:30N 34°41' E 135°12'0 0.0
2018-Nov-05 14:03N 34°41' E 135°12'0 0.0
2018-Nov-05 13:30N 34°41' E 135°12'0 0.0
2018-Nov-05 13:03N 34°41' E 135°12'0 0.0
2018-Nov-05 13:00N 34°41' E 135°12'0 0.0
2018-Nov-05 12:30N 34°41' E 135°12'0 0.0
2018-Nov-05 12:03N 34°41' E 135°12'0 0.0
2018-Nov-05 12:00N 34°41' E 135°12'0 0.0
2018-Nov-05 11:30N 34°41' E 135°12'0 0.0
2018-Nov-05 11:03N 34°41' E 135°12'0 0.0
2018-Nov-05 11:00N 34°41' E 135°12'0 0.0
2018-Nov-05 10:30N 34°41' E 135°12'0 0.0
2018-Nov-05 10:03N 34°41' E 135°12'0 0.0
2018-Nov-05 10:00N 34°41' E 135°12'0 0.0
2018-Nov-05 09:30N 34°41' E 135°12'0 0.0
2018-Nov-05 09:03N 34°41' E 135°12'0 0.0
2018-Nov-05 09:00N 34°41' E 135°12'0 0.0
2018-Nov-05 08:30N 34°41' E 135°12'0 0.0
2018-Nov-05 08:03N 34°41' E 135°12'0 0.0
2018-Nov-05 08:00N 34°41' E 135°12'0 0.0
2018-Nov-05 07:30N 34°41' E 135°12'0 0.0
2018-Nov-05 07:03N 34°41' E 135°12'0 0.0
2018-Nov-05 07:00N 34°41' E 135°12'0 0.0
2018-Nov-05 06:30N 34°41' E 135°12'0 1.0
2018-Nov-05 06:03N 34°41' E 135°13'0 7.4
2018-Nov-05 06:00N 34°41' E 135°13'611.3
2018-Nov-05 05:30N 34°37' E 135°18'510.9
2018-Nov-05 05:03N 34°33' E 135°22'1 9.6
2018-Nov-05 04:59N 34°33' E 135°23'2 1.1
2018-Nov-05 02:45N 34°31' E 135°25'0 0.0
2018-Nov-05 02:19N 34°31' E 135°25'0 0.0
2018-Nov-05 02:02N 34°31' E 135°25'0 0.0
2018-Nov-05 02:00N 34°31' E 135°25'0 0.0
2018-Nov-05 01:30N 34°31' E 135°25'0 0.0
2018-Nov-05 01:03N 34°31' E 135°25'0 0.0
2018-Nov-05 01:00N 34°31' E 135°25'0 0.0
2018-Nov-05 00:30N 34°31' E 135°25'0 0.0
2018-Nov-05 00:03N 34°31' E 135°25'0 0.0
2018-Nov-04 23:59N 34°31' E 135°25'0 0.0
2018-Nov-04 23:30N 34°31' E 135°25'0 0.6
2018-Nov-04 23:03N 34°31' E 135°25'1 8.6
2018-Nov-04 22:57N 34°32' E 135°24'4 9.7
2018-Nov-04 22:30N 34°34' E 135°19'4 9.8
2018-Nov-04 22:03N 34°38' E 135°17'110.1
2018-Nov-04 22:00N 34°38' E 135°16'4 8.6
2018-Nov-04 21:30N 34°41' E 135°12'0 0.1
2018-Nov-04 21:03N 34°41' E 135°12'0 0.0
2018-Nov-04 21:00N 34°41' E 135°12'0 0.0
2018-Nov-04 20:30N 34°41' E 135°12'0 0.0
2018-Nov-04 20:03N 34°41' E 135°12'0 0.0
2018-Nov-04 20:00N 34°41' E 135°12'0 0.0
2018-Nov-04 19:30N 34°41' E 135°12'0 0.0
2018-Nov-04 19:03N 34°41' E 135°12'0 0.0
2018-Nov-04 19:00N 34°41' E 135°12'0 0.0
2018-Nov-04 18:30N 34°41' E 135°12'0 0.0
2018-Nov-04 18:03N 34°41' E 135°12'0 0.0
2018-Nov-04 18:00N 34°41' E 135°12'0 0.0
2018-Nov-04 17:30N 34°41' E 135°12'0 0.0
2018-Nov-04 17:00N 34°41' E 135°12'0 0.0
2018-Nov-04 16:30N 34°41' E 135°12'0 0.0
2018-Nov-04 16:03N 34°41' E 135°12'0 0.0
2018-Nov-04 16:00N 34°41' E 135°12'0 0.0
2018-Nov-04 15:30N 34°41' E 135°12'0 0.0
2018-Nov-04 15:03N 34°41' E 135°12'0 0.0
2018-Nov-04 15:00N 34°41' E 135°12'0 0.0
2018-Nov-04 14:30N 34°41' E 135°12'0 0.0
2018-Nov-04 14:03N 34°41' E 135°12'0 0.0
2018-Nov-04 14:00N 34°41' E 135°12'0 0.0
2018-Nov-04 13:30N 34°41' E 135°12'0 0.0
2018-Nov-04 13:03N 34°41' E 135°12'0 0.0
2018-Nov-04 13:00N 34°41' E 135°12'0 0.0
2018-Nov-04 12:30N 34°41' E 135°12'0 0.0
2018-Nov-04 12:03N 34°41' E 135°12'0 0.0
2018-Nov-04 12:00N 34°41' E 135°12'0 0.0
2018-Nov-04 11:30N 34°41' E 135°12'0 0.0
2018-Nov-04 11:03N 34°41' E 135°12'0 0.0
2018-Nov-04 11:00N 34°41' E 135°12'0 0.0
2018-Nov-04 10:30N 34°41' E 135°12'0 0.0
2018-Nov-04 10:03N 34°41' E 135°12'0 0.0
2018-Nov-04 10:00N 34°41' E 135°12'0 0.0
2018-Nov-04 09:30N 34°41' E 135°12'0 0.0
2018-Nov-04 09:03N 34°41' E 135°12'0 0.0
2018-Nov-04 09:00N 34°41' E 135°12'0 0.0
2018-Nov-04 08:30N 34°41' E 135°12'0 0.0
2018-Nov-04 08:03N 34°41' E 135°12'0 0.0
2018-Nov-04 08:00N 34°41' E 135°12'0 0.0
2018-Nov-04 07:30N 34°41' E 135°12'0 0.0
2018-Nov-04 07:03N 34°41' E 135°12'0 0.0
2018-Nov-04 07:00N 34°41' E 135°12'0 0.0
2018-Nov-04 06:30N 34°41' E 135°12'0 0.0
2018-Nov-04 06:03N 34°41' E 135°12'0 0.0
2018-Nov-04 06:00N 34°41' E 135°12'0 0.0
2018-Nov-04 05:30N 34°41' E 135°12'0 0.0
2018-Nov-04 05:03N 34°41' E 135°12'0 0.0
2018-Nov-04 05:00N 34°41' E 135°12'0 0.0
2018-Nov-04 04:30N 34°41' E 135°12'0 0.0
2018-Nov-04 04:03N 34°41' E 135°12'0 0.0
2018-Nov-04 04:00N 34°41' E 135°12'0 0.0
2018-Nov-04 03:30N 34°41' E 135°12'0 0.0
2018-Nov-04 03:03N 34°41' E 135°12'0 0.0
2018-Nov-04 03:00N 34°41' E 135°12'0 0.0
2018-Nov-04 02:30N 34°41' E 135°12'0 0.0
2018-Nov-04 02:03N 34°41' E 135°12'0 0.0
2018-Nov-04 02:00N 34°41' E 135°12'0 0.0
2018-Nov-04 01:30N 34°41' E 135°12'0 0.0
2018-Nov-04 01:03N 34°41' E 135°12'0 0.0
2018-Nov-04 01:00N 34°41' E 135°12'0 0.0
2018-Nov-04 00:30N 34°41' E 135°12'0 0.0
2018-Nov-04 00:03N 34°41' E 135°12'0 0.0
2018-Nov-04 00:00N 34°41' E 135°12'0 0.0
2018-Nov-03 23:30N 34°41' E 135°12'0 0.0
2018-Nov-03 23:03N 34°41' E 135°12'0 0.0
2018-Nov-03 23:00N 34°41' E 135°12'0 0.0
2018-Nov-03 22:30N 34°41' E 135°12'0 0.0
2018-Nov-03 20:30N 34°41' E 135°12'0 0.0
2018-Nov-03 20:03N 34°41' E 135°12'0 0.0
2018-Nov-03 20:00N 34°41' E 135°12'0 0.0
2018-Nov-03 19:30N 34°41' E 135°12'0 0.0
2018-Nov-03 19:03N 34°41' E 135°12'0 0.0
2018-Nov-03 19:00N 34°41' E 135°12'0 0.0
2018-Nov-03 18:30N 34°41' E 135°12'0 0.0
2018-Nov-03 18:03N 34°41' E 135°12'0 0.0
2018-Nov-03 18:00N 34°41' E 135°12'0 0.0
2018-Nov-03 17:30N 34°41' E 135°12'0 0.0
2018-Nov-03 17:03N 34°41' E 135°12'0 0.0
2018-Nov-03 17:00N 34°41' E 135°12'2 3.1
2018-Nov-03 16:30N 34°41' E 135°14'3 6.9
2018-Nov-03 16:03N 34°40' E 135°18'0 1.4
2018-Nov-03 16:00N 34°40' E 135°18'0 0.0
2018-Nov-03 15:30N 34°40' E 135°18'0 0.0
2018-Nov-03 15:03N 34°40' E 135°18'0 0.0
2018-Nov-03 15:00N 34°40' E 135°18'0 0.0
2018-Nov-03 14:30N 34°40' E 135°18'0 0.0
2018-Nov-03 14:03N 34°40' E 135°18'0 0.0
2018-Nov-03 14:00N 34°40' E 135°18'0 0.0
2018-Nov-03 13:30N 34°40' E 135°18'0 0.0
2018-Nov-03 13:03N 34°40' E 135°18'0 0.0
2018-Nov-03 13:00N 34°40' E 135°18'0 1.0
2018-Nov-03 12:30N 34°39' E 135°17'1 1.8
2018-Nov-03 12:03N 34°38' E 135°17'0 4.0
2018-Nov-03 12:00N 34°38' E 135°17'4 8.8
2018-Nov-03 11:30N 34°41' E 135°12'0 0.5
2018-Nov-03 11:03N 34°41' E 135°12'0 0.0
2018-Nov-03 11:00N 34°41' E 135°12'0 0.0
2018-Nov-03 10:30N 34°41' E 135°12'0 0.0
2018-Nov-03 10:03N 34°41' E 135°12'0 0.0
2018-Nov-03 10:00N 34°41' E 135°12'0 0.0
2018-Nov-03 09:30N 34°41' E 135°12'0 0.0
2018-Nov-03 09:03N 34°41' E 135°12'0 0.0
2018-Nov-03 09:00N 34°41' E 135°12'0 0.0
2018-Nov-03 08:30N 34°41' E 135°12'0 0.0
2018-Nov-03 08:03N 34°41' E 135°12'0 0.0
2018-Nov-03 08:00N 34°41' E 135°12'0 0.0
2018-Nov-03 07:30N 34°41' E 135°12'0 0.0
2018-Nov-03 07:03N 34°41' E 135°12'0 0.0
2018-Nov-03 07:00N 34°41' E 135°12'0 0.0
2018-Nov-03 06:30N 34°41' E 135°12'0 0.0
2018-Nov-03 06:03N 34°41' E 135°12'0 0.0
2018-Nov-03 06:00N 34°41' E 135°12'0 0.0
2018-Nov-03 05:30N 34°41' E 135°12'0 0.0
2018-Nov-03 05:03N 34°41' E 135°12'0 0.0
2018-Nov-03 05:00N 34°41' E 135°12'0 0.0
2018-Nov-03 04:30N 34°41' E 135°12'0 0.0
2018-Nov-03 04:03N 34°41' E 135°12'0 0.0
2018-Nov-03 04:00N 34°41' E 135°12'0 0.0
2018-Nov-03 03:30N 34°41' E 135°12'0 0.0
2018-Nov-03 03:03N 34°41' E 135°12'0 0.0
2018-Nov-03 03:00N 34°41' E 135°12'0 0.0
2018-Nov-03 02:30N 34°41' E 135°12'0 0.0
2018-Nov-03 02:02N 34°41' E 135°12'0 0.0
2018-Nov-03 02:00N 34°41' E 135°12'0 0.0
2018-Nov-03 01:30N 34°41' E 135°12'0 0.0
2018-Nov-03 01:03N 34°41' E 135°12'0 0.0
2018-Nov-03 01:00N 34°41' E 135°12'0 0.0
2018-Nov-03 00:30N 34°41' E 135°12'0 0.0
2018-Nov-03 00:03N 34°41' E 135°12'0 0.0
2018-Nov-03 00:00N 34°41' E 135°12'0 0.0
2018-Nov-02 23:30N 34°41' E 135°12'0 0.0
2018-Nov-02 23:03N 34°41' E 135°12'0 0.0
2018-Nov-02 23:00N 34°41' E 135°12'0 0.0
2018-Nov-02 22:30N 34°41' E 135°12'0 0.0
2018-Nov-02 22:03N 34°41' E 135°12'0 0.0
2018-Nov-02 22:00N 34°41' E 135°12'0 0.0
2018-Nov-02 21:30N 34°41' E 135°12'0 0.0
2018-Nov-02 21:03N 34°41' E 135°12'0 0.0
2018-Nov-02 21:00N 34°41' E 135°12'0 0.0
2018-Nov-02 20:30N 34°41' E 135°12'0 0.0
2018-Nov-02 20:03N 34°41' E 135°12'0 0.0
2018-Nov-02 20:00N 34°41' E 135°12'0 0.0
2018-Nov-02 19:30N 34°41' E 135°12'0 0.0
2018-Nov-02 19:03N 34°41' E 135°12'0 0.0
2018-Nov-02 19:00N 34°41' E 135°12'0 0.0
2018-Nov-02 18:30N 34°41' E 135°12'0 0.0
2018-Nov-02 18:03N 34°41' E 135°12'0 0.0
2018-Nov-02 18:00N 34°41' E 135°12'0 0.0
2018-Nov-02 17:30N 34°41' E 135°12'0 0.0
2018-Nov-02 17:03N 34°41' E 135°12'0 0.0
2018-Nov-02 17:00N 34°41' E 135°12'0 0.0
2018-Nov-02 16:30N 34°41' E 135°12'0 0.0
2018-Nov-02 16:03N 34°41' E 135°12'0 0.0
2018-Nov-02 16:00N 34°41' E 135°12'0 0.0
2018-Nov-02 15:30N 34°41' E 135°12'0 0.0
2018-Nov-02 15:03N 34°41' E 135°12'0 0.0
2018-Nov-02 15:00N 34°41' E 135°12'0 0.0
2018-Nov-02 14:30N 34°41' E 135°12'0 0.0
2018-Nov-02 14:00N 34°41' E 135°12'0 0.0
2018-Nov-02 13:30N 34°41' E 135°12'0 0.0
2018-Nov-02 13:03N 34°41' E 135°12'0 0.0
2018-Nov-02 13:00N 34°41' E 135°12'0 0.0
2018-Nov-02 12:30N 34°41' E 135°12'0 0.0
2018-Nov-02 12:03N 34°41' E 135°12'0 0.0
2018-Nov-02 12:00N 34°41' E 135°12'0 0.0
2018-Nov-02 11:30N 34°41' E 135°12'0 0.0
2018-Nov-02 11:03N 34°41' E 135°12'0 0.0
2018-Nov-02 11:00N 34°41' E 135°12'0 0.0
2018-Nov-02 10:30N 34°41' E 135°12'0 0.0
2018-Nov-02 10:03N 34°41' E 135°12'0 0.0
2018-Nov-02 10:00N 34°41' E 135°12'0 0.0
2018-Nov-02 09:30N 34°41' E 135°12'0 0.0
2018-Nov-02 09:03N 34°41' E 135°12'0 0.0
2018-Nov-02 09:00N 34°41' E 135°12'0 0.0
2018-Nov-02 08:30N 34°41' E 135°12'0 0.0
2018-Nov-02 08:03N 34°41' E 135°12'0 0.1
2018-Nov-02 08:00N 34°41' E 135°12'0 0.7
2018-Nov-02 07:30N 34°41' E 135°13'0 0.0
2018-Nov-02 07:03N 34°41' E 135°13'0 0.0
2018-Nov-02 07:00N 34°41' E 135°13'0 0.0
2018-Nov-02 06:30N 34°41' E 135°13'0 0.0
2018-Nov-02 06:03N 34°41' E 135°13'0 0.0
2018-Nov-02 06:00N 34°41' E 135°13'0 0.0
2018-Nov-02 05:30N 34°41' E 135°13'0 0.0
2018-Nov-02 05:03N 34°41' E 135°13'0 0.0
2018-Nov-02 05:00N 34°41' E 135°13'3 5.7
2018-Nov-02 04:30N 34°41' E 135°16'510.2
2018-Nov-02 04:01N 34°41' E 135°22'012.1
2018-Nov-02 04:00N 34°41' E 135°22'2 3.7
2018-Nov-02 03:30N 34°42' E 135°24'0 0.8
2018-Nov-02 03:03N 34°42' E 135°23'0 0.0
2018-Nov-02 03:00N 34°42' E 135°23'0 0.0
2018-Nov-02 02:21N 34°42' E 135°23'0 0.0
2018-Nov-02 01:47N 34°42' E 135°23'0 0.0
2018-Nov-02 01:28N 34°42' E 135°23'0 0.0
2018-Nov-02 00:59N 34°42' E 135°23'0 0.0
2018-Nov-02 00:55N 34°42' E 135°23'0 0.0
2018-Nov-02 00:36N 34°42' E 135°23'0 0.1
2018-Nov-02 00:30N 34°42' E 135°23'0 0.0
2018-Nov-02 00:03N 34°42' E 135°23'0 0.0
2018-Nov-02 00:00N 34°42' E 135°23'0 0.0
2018-Nov-01 23:30N 34°42' E 135°23'0 0.0
2018-Nov-01 23:03N 34°42' E 135°23'0 0.0
2018-Nov-01 23:00N 34°42' E 135°23'0 0.4
2018-Nov-01 22:30N 34°42' E 135°24'0 0.7
2018-Nov-01 22:03N 34°42' E 135°24'0 3.3
2018-Nov-01 22:00N 34°42' E 135°24'4 8.4
2018-Nov-01 21:30N 34°42' E 135°18'410.0
2018-Nov-01 21:03N 34°41' E 135°13'0 8.4
2018-Nov-01 21:00N 34°41' E 135°13'0 0.8
2018-Nov-01 20:30N 34°41' E 135°12'0 0.0
2018-Nov-01 20:03N 34°41' E 135°12'0 0.0
2018-Nov-01 20:00N 34°41' E 135°12'0 0.0
2018-Nov-01 19:30N 34°41' E 135°12'0 0.0
2018-Nov-01 19:03N 34°41' E 135°12'0 0.0
2018-Nov-01 19:00N 34°41' E 135°12'0 0.0
2018-Nov-01 18:30N 34°41' E 135°12'0 0.0
2018-Nov-01 18:03N 34°41' E 135°12'0 0.0
2018-Nov-01 18:00N 34°41' E 135°12'0 0.0
2018-Nov-01 17:30N 34°41' E 135°12'0 0.0
2018-Nov-01 17:03N 34°41' E 135°12'0 0.0
2018-Nov-01 17:00N 34°41' E 135°12'0 0.0
2018-Nov-01 16:30N 34°41' E 135°12'0 0.0
2018-Nov-01 16:03N 34°41' E 135°12'0 0.0
2018-Nov-01 16:00N 34°41' E 135°12'0 0.0
2018-Nov-01 15:30N 34°41' E 135°12'0 0.0
2018-Nov-01 15:03N 34°41' E 135°12'0 0.0
2018-Nov-01 15:00N 34°41' E 135°12'0 0.0
2018-Nov-01 14:30N 34°41' E 135°12'0 0.0
2018-Nov-01 14:00N 34°41' E 135°12'0 0.0
2018-Nov-01 13:30N 34°41' E 135°12'0 0.0
2018-Nov-01 13:03N 34°41' E 135°12'0 0.0
2018-Nov-01 13:00N 34°41' E 135°12'0 0.0
2018-Nov-01 12:30N 34°41' E 135°12'0 0.0
2018-Nov-01 12:03N 34°41' E 135°12'0 0.0
2018-Nov-01 12:00N 34°41' E 135°12'0 0.0
2018-Nov-01 11:30N 34°41' E 135°12'0 0.0
2018-Nov-01 11:03N 34°41' E 135°12'0 0.0
2018-Nov-01 11:00N 34°41' E 135°12'0 0.0
2018-Nov-01 10:30N 34°41' E 135°12'0 0.0
2018-Nov-01 10:03N 34°41' E 135°12'0 0.0
2018-Nov-01 10:00N 34°41' E 135°12'0 0.0
2018-Nov-01 09:30N 34°41' E 135°12'0 0.0
2018-Nov-01 09:03N 34°41' E 135°12'0 0.0
2018-Nov-01 09:00N 34°41' E 135°12'0 0.0
2018-Nov-01 08:30N 34°41' E 135°12'0 0.0
2018-Nov-01 08:02N 34°41' E 135°12'0 0.0
2018-Nov-01 08:00N 34°41' E 135°12'0 0.0
2018-Nov-01 07:30N 34°41' E 135°12'0 0.0
2018-Nov-01 07:03N 34°41' E 135°12'0 0.0
2018-Nov-01 07:00N 34°41' E 135°12'0 0.4
2018-Nov-01 06:30N 34°41' E 135°12'0 0.6
2018-Nov-01 06:02N 34°41' E 135°12'0 0.0
2018-Nov-01 06:00N 34°41' E 135°12'0 0.0
2018-Nov-01 05:30N 34°41' E 135°12'0 0.0
2018-Nov-01 05:03N 34°41' E 135°12'0 0.0
2018-Nov-01 05:00N 34°41' E 135°12'0 0.0
2018-Nov-01 04:30N 34°41' E 135°12'0 0.0
2018-Nov-01 04:03N 34°41' E 135°12'0 0.0
2018-Nov-01 04:00N 34°41' E 135°12'0 0.2
2018-Nov-01 03:30N 34°41' E 135°12'3 7.6
2018-Nov-01 03:03N 34°41' E 135°16'011.2
2018-Nov-01 03:00N 34°41' E 135°17'510.6
2018-Nov-01 02:30N 34°41' E 135°23'1 2.0
2018-Nov-01 02:03N 34°42' E 135°24'0 3.6
2018-Nov-01 02:00N 34°42' E 135°24'0 0.2
2018-Nov-01 01:15N 34°42' E 135°23'0 0.0
2018-Oct-31 23:53N 34°42' E 135°23'0 0.0
2018-Oct-31 22:19N 34°42' E 135°23'0 1.3
2018-Oct-31 22:03N 34°42' E 135°24'0 2.1
2018-Oct-31 22:00N 34°42' E 135°24'2 4.1
2018-Oct-31 21:30N 34°41' E 135°22'510.5
2018-Oct-31 21:03N 34°38' E 135°17'010.4
2018-Oct-31 21:00N 34°38' E 135°17'4 9.0
2018-Oct-31 20:30N 34°38' E 135°11'1 3.1
2018-Oct-31 20:03N 34°39' E 135°12'0 1.0
2018-Oct-31 20:00N 34°39' E 135°12'0 0.1
2018-Oct-31 19:30N 34°39' E 135°12'0 0.0
2018-Oct-31 19:03N 34°39' E 135°12'0 0.0
2018-Oct-31 19:00N 34°39' E 135°12'0 0.0
2018-Oct-31 18:30N 34°39' E 135°12'0 0.0
2018-Oct-31 18:03N 34°39' E 135°12'0 0.0
2018-Oct-31 18:00N 34°39' E 135°12'0 0.0
2018-Oct-31 17:30N 34°39' E 135°12'0 0.0
2018-Oct-31 17:03N 34°39' E 135°12'0 0.1
2018-Oct-31 17:00N 34°39' E 135°12'0 0.0
2018-Oct-31 16:30N 34°39' E 135°12'0 0.1
2018-Oct-31 16:03N 34°39' E 135°12'0 0.0
2018-Oct-31 16:00N 34°39' E 135°12'0 0.1
2018-Oct-31 15:30N 34°39' E 135°12'0 0.0
2018-Oct-31 15:03N 34°39' E 135°12'0 0.0
2018-Oct-31 15:00N 34°39' E 135°12'0 0.0
2018-Oct-31 14:03N 34°39' E 135°12'0 0.0
2018-Oct-31 14:00N 34°39' E 135°12'0 0.0
2018-Oct-31 13:30N 34°39' E 135°12'0 0.0
2018-Oct-31 13:03N 34°39' E 135°12'0 0.0
2018-Oct-31 13:00N 34°39' E 135°12'  
Track history (hours):
 
Tides and Currents Weather Stations Pressure Air Temp Water Temp Dewpoint Dewpoint Depression Visibility Wind Speed Wind Dir Waves Ship Positions

Kaisei Maru

Last reported at 2018-Nov-10 12:35 UTC. Time now 2018-Nov-16 15:46 UTC.
Position N 34°41' E 135°17'.

Length 52 m; draft 3.7 m.

Type: Tanker. MMSI: 431001837.

Date/timePositionNaut miles runAvg speedWind from/ knotsBaromVisibWave heightAir tempDewpointWater temp
2018-Nov-10 12:35N 34°41' E 135°17'2 0.5
2018-Nov-10 08:44N 34°39' E 135°18'2 7.6
2018-Nov-10 08:32N 34°37' E 135°18'4 6.9
2018-Nov-10 08:01N 34°34' E 135°19'3 6.6
2018-Nov-10 07:31N 34°31' E 135°19'2 4.8
2018-Nov-10 07:02N 34°28' E 135°20'0 0.0
2018-Nov-10 06:29N 34°28' E 135°20'0 0.0
2018-Nov-10 06:02N 34°28' E 135°20'0 0.0
2018-Nov-10 05:18N 34°28' E 135°20'0 0.3
2018-Nov-10 04:55N 34°28' E 135°20'3 1.8
2018-Nov-10 03:30N 34°26' E 135°19'1 0.9
2018-Nov-10 02:44N 34°26' E 135°19'0 0.1
2018-Nov-10 02:32N 34°26' E 135°19'14 8.3
2018-Nov-10 00:48N 34°40' E 135°15'2 0.1
2018-Nov-09 09:14N 34°41' E 135°12'0 0.0
2018-Nov-09 09:02N 34°41' E 135°12'0 0.0
2018-Nov-09 08:32N 34°41' E 135°12'0 0.0
2018-Nov-09 08:02N 34°41' E 135°12'0 0.0
2018-Nov-09 07:32N 34°41' E 135°12'0 0.0
2018-Nov-09 07:02N 34°41' E 135°12'0 0.0
2018-Nov-09 06:32N 34°41' E 135°12'0 0.0
2018-Nov-09 06:02N 34°41' E 135°12'0 0.0
2018-Nov-09 05:32N 34°41' E 135°12'0 0.0
2018-Nov-09 05:02N 34°41' E 135°12'0 0.0
2018-Nov-09 04:32N 34°41' E 135°12'0 0.0
2018-Nov-09 04:02N 34°41' E 135°12'0 0.0
2018-Nov-09 03:32N 34°41' E 135°12'0 0.0
2018-Nov-09 03:02N 34°41' E 135°12'0 0.0
2018-Nov-09 02:32N 34°41' E 135°12'0 0.0
2018-Nov-09 02:02N 34°41' E 135°12'0 0.0
2018-Nov-09 01:32N 34°41' E 135°12'0 0.0
2018-Nov-09 01:02N 34°41' E 135°12'0 0.0
2018-Nov-09 00:32N 34°41' E 135°12'0 0.0
2018-Nov-09 00:02N 34°41' E 135°12'0 0.0
2018-Nov-08 23:32N 34°41' E 135°12'0 0.0
2018-Nov-08 23:02N 34°41' E 135°12'0 0.0
2018-Nov-08 22:32N 34°41' E 135°12'0 0.0
2018-Nov-08 22:02N 34°41' E 135°12'0 0.0
2018-Nov-08 21:32N 34°41' E 135°12'0 0.0
2018-Nov-08 21:02N 34°41' E 135°12'0 0.0
2018-Nov-08 20:32N 34°41' E 135°12'0 0.0
2018-Nov-08 20:02N 34°41' E 135°12'0 0.0
2018-Nov-08 19:32N 34°41' E 135°12'0 0.0
2018-Nov-08 19:02N 34°41' E 135°12'0 0.0
2018-Nov-08 18:32N 34°41' E 135°12'0 0.0
2018-Nov-08 18:02N 34°41' E 135°12'0 0.0
2018-Nov-08 17:32N 34°41' E 135°12'0 0.0
2018-Nov-08 17:02N 34°41' E 135°12'0 0.0
2018-Nov-08 16:32N 34°41' E 135°12'0 0.0
2018-Nov-08 16:02N 34°41' E 135°12'0 0.0
2018-Nov-08 15:32N 34°41' E 135°12'0 0.0
2018-Nov-08 15:02N 34°41' E 135°12'0 0.0
2018-Nov-08 14:32N 34°41' E 135°12'0 0.0
2018-Nov-08 14:02N 34°41' E 135°12'0 0.0
2018-Nov-08 13:32N 34°41' E 135°12'0 0.0
2018-Nov-08 13:02N 34°41' E 135°12'0 0.0
2018-Nov-08 12:32N 34°41' E 135°12'0 0.0
2018-Nov-08 12:02N 34°41' E 135°12'0 0.0
2018-Nov-08 11:32N 34°41' E 135°12'0 0.0
2018-Nov-08 11:02N 34°41' E 135°12'0 0.0
2018-Nov-08 10:32N 34°41' E 135°12'0 0.0
2018-Nov-08 10:02N 34°41' E 135°12'0 0.0
2018-Nov-08 09:32N 34°41' E 135°12'0 0.2
2018-Nov-08 09:02N 34°41' E 135°12'4 8.6
2018-Nov-08 08:32N 34°38' E 135°17'0 0.6
2018-Nov-08 08:02N 34°39' E 135°16'4 7.7
2018-Nov-08 07:32N 34°41' E 135°13'0 0.0
2018-Nov-08 07:02N 34°41' E 135°13'0 0.0
2018-Nov-08 06:32N 34°41' E 135°13'0 0.0
2018-Nov-08 06:02N 34°41' E 135°13'0 0.0
2018-Nov-08 05:32N 34°41' E 135°13'0 0.5
2018-Nov-08 05:02N 34°41' E 135°13'4 8.6
2018-Nov-08 04:32N 34°41' E 135°18'5 9.1
2018-Nov-08 04:01N 34°42' E 135°24'0 0.6
2018-Nov-08 03:31N 34°42' E 135°24'0 0.0
2018-Nov-07 23:14N 34°42' E 135°23'0 0.4
2018-Nov-07 23:02N 34°42' E 135°24'0 0.8
2018-Nov-07 22:32N 34°42' E 135°24'1 1.5
2018-Nov-07 22:02N 34°41' E 135°23'4 9.0
2018-Nov-07 21:32N 34°41' E 135°18'5 9.3
2018-Nov-07 21:02N 34°41' E 135°12'0 0.4
2018-Nov-07 20:32N 34°41' E 135°12'0 0.0
2018-Nov-07 20:02N 34°41' E 135°12'0 0.0
2018-Nov-07 19:32N 34°41' E 135°12'0 0.0
2018-Nov-07 19:02N 34°41' E 135°12'0 0.0
2018-Nov-07 18:32N 34°41' E 135°12'0 0.0
2018-Nov-07 18:02N 34°41' E 135°12'0 0.0
2018-Nov-07 17:32N 34°41' E 135°12'0 0.0
2018-Nov-07 17:02N 34°41' E 135°12'0 0.0
2018-Nov-07 16:32N 34°41' E 135°12'0 0.0
2018-Nov-07 16:02N 34°41' E 135°12'0 0.0
2018-Nov-07 15:32N 34°41' E 135°12'0 0.0
2018-Nov-07 15:02N 34°41' E 135°12'0 0.0
2018-Nov-07 14:32N 34°41' E 135°12'0 0.0
2018-Nov-07 14:02N 34°41' E 135°12'0 0.0
2018-Nov-07 13:32N 34°41' E 135°12'0 0.0
2018-Nov-07 13:02N 34°41' E 135°12'0 0.0
2018-Nov-07 12:32N 34°41' E 135°12'0 0.0
2018-Nov-07 12:02N 34°41' E 135°12'0 0.0
2018-Nov-07 11:32N 34°41' E 135°12'0 0.0
2018-Nov-07 11:02N 34°41' E 135°12'0 0.0
2018-Nov-07 10:32N 34°41' E 135°12'0 0.0
2018-Nov-07 10:02N 34°41' E 135°12'0 0.0
2018-Nov-07 09:32N 34°41' E 135°12'0 0.0
2018-Nov-07 09:02N 34°41' E 135°12'0 0.0
2018-Nov-07 08:32N 34°41' E 135°12'0 0.0
2018-Nov-07 08:02N 34°41' E 135°12'0 0.0
2018-Nov-07 07:32N 34°41' E 135°12'0 0.0
2018-Nov-07 07:02N 34°41' E 135°12'0 0.0
2018-Nov-07 06:32N 34°41' E 135°12'0 0.0
2018-Nov-07 06:02N 34°41' E 135°12'3 5.9
2018-Nov-07 05:32N 34°40' E 135°15'510.5
2018-Nov-07 05:02N 34°35' E 135°17'510.4
2018-Nov-07 04:32N 34°30' E 135°18'4 0.8
2018-Nov-06 23:30N 34°26' E 135°19'1 3.0
2018-Nov-06 23:02N 34°27' E 135°19'011.2
2018-Nov-06 23:00N 34°28' E 135°19'1110.7
2018-Nov-06 22:00N 34°38' E 135°16'4 8.9
2018-Nov-06 21:30N 34°41' E 135°12'0 0.1
2018-Nov-06 21:03N 34°41' E 135°12'0 0.0
2018-Nov-06 21:00N 34°41' E 135°12'0 0.0
2018-Nov-06 20:30N 34°41' E 135°12'0 0.0
2018-Nov-06 20:03N 34°41' E 135°12'0 0.0
2018-Nov-06 20:00N 34°41' E 135°12'0 0.0
2018-Nov-06 19:30N 34°41' E 135°12'0 0.0
2018-Nov-06 19:03N 34°41' E 135°12'0 0.0
2018-Nov-06 19:00N 34°41' E 135°12'0 0.0
2018-Nov-06 18:30N 34°41' E 135°12'0 0.0
2018-Nov-06 18:03N 34°41' E 135°12'0 0.0
2018-Nov-06 18:00N 34°41' E 135°12'0 0.0
2018-Nov-06 17:30N 34°41' E 135°12'0 0.0
2018-Nov-06 17:03N 34°41' E 135°12'0 0.0
2018-Nov-06 17:00N 34°41' E 135°12'0 0.0
2018-Nov-06 16:30N 34°41' E 135°12'0 0.0
2018-Nov-06 16:03N 34°41' E 135°12'0 0.0
2018-Nov-06 16:00N 34°41' E 135°12'0 0.0
2018-Nov-06 15:30N 34°41' E 135°12'0 0.0
2018-Nov-06 15:03N 34°41' E 135°12'0 0.0
2018-Nov-06 15:00N 34°41' E 135°12'0 0.0
2018-Nov-06 14:30N 34°41' E 135°12'0 0.0
2018-Nov-06 14:03N 34°41' E 135°12'0 0.0
2018-Nov-06 14:00N 34°41' E 135°12'0 0.0
2018-Nov-06 13:30N 34°41' E 135°12'0 0.0
2018-Nov-06 13:03N 34°41' E 135°12'0 0.0
2018-Nov-06 13:00N 34°41' E 135°12'0 0.0
2018-Nov-06 12:30N 34°41' E 135°12'0 0.0
2018-Nov-06 12:03N 34°41' E 135°12'0 0.0
2018-Nov-06 12:00N 34°41' E 135°12'0 0.0
2018-Nov-06 11:30N 34°41' E 135°12'0 0.0
2018-Nov-06 11:03N 34°41' E 135°12'0 0.0
2018-Nov-06 11:00N 34°41' E 135°12'0 0.0
2018-Nov-06 10:30N 34°41' E 135°12'0 0.0
2018-Nov-06 10:03N 34°41' E 135°12'0 0.0
2018-Nov-06 10:00N 34°41' E 135°12'0 0.0
2018-Nov-06 09:30N 34°41' E 135°12'0 0.0
2018-Nov-06 09:03N 34°41' E 135°12'0 0.0
2018-Nov-06 09:00N 34°41' E 135°12'0 0.0
2018-Nov-06 08:30N 34°41' E 135°12'0 0.0
2018-Nov-06 08:03N 34°41' E 135°12'0 0.0
2018-Nov-06 08:00N 34°41' E 135°12'0 0.0
2018-Nov-06 07:30N 34°41' E 135°12'0 0.0
2018-Nov-06 07:03N 34°41' E 135°12'0 0.0
2018-Nov-06 07:00N 34°41' E 135°12'0 0.0
2018-Nov-06 06:30N 34°41' E 135°12'0 0.0
2018-Nov-06 06:03N 34°41' E 135°12'0 0.0
2018-Nov-06 06:00N 34°41' E 135°12'0 0.0
2018-Nov-06 05:30N 34°41' E 135°12'0 0.0
2018-Nov-06 05:03N 34°41' E 135°12'0 0.0
2018-Nov-06 05:00N 34°41' E 135°12'0 0.0
2018-Nov-06 04:30N 34°41' E 135°12'0 0.0
2018-Nov-06 04:03N 34°41' E 135°12'0 0.0
2018-Nov-06 04:00N 34°41' E 135°12'0 0.0
2018-Nov-06 03:30N 34°41' E 135°12'0 0.0
2018-Nov-06 03:03N 34°41' E 135°12'0 0.0
2018-Nov-06 03:00N 34°41' E 135°12'0 0.0
2018-Nov-06 02:30N 34°41' E 135°12'0 0.0
2018-Nov-06 02:03N 34°41' E 135°12'0 0.0
2018-Nov-06 02:00N 34°41' E 135°12'0 0.0
2018-Nov-06 01:30N 34°41' E 135°12'0 0.0
2018-Nov-06 00:30N 34°41' E 135°12'0 0.0
2018-Nov-05 23:30N 34°41' E 135°12'0 0.0
2018-Nov-05 23:03N 34°41' E 135°12'0 0.0
2018-Nov-05 23:00N 34°41' E 135°12'0 0.0
2018-Nov-05 22:30N 34°41' E 135°12'0 0.0
2018-Nov-05 22:03N 34°41' E 135°12'0 0.0
2018-Nov-05 22:00N 34°41' E 135°12'0 0.0
2018-Nov-05 21:30N 34°41' E 135°12'0 0.0
2018-Nov-05 21:03N 34°41' E 135°12'0 0.0
2018-Nov-05 21:00N 34°41' E 135°12'0 0.0
2018-Nov-05 20:30N 34°41' E 135°12'0 0.0
2018-Nov-05 20:03N 34°41' E 135°12'0 0.0
2018-Nov-05 20:00N 34°41' E 135°12'0 0.0
2018-Nov-05 19:30N 34°41' E 135°12'0 0.0
2018-Nov-05 19:03N 34°41' E 135°12'0 0.0
2018-Nov-05 19:00N 34°41' E 135°12'0 0.0
2018-Nov-05 18:30N 34°41' E 135°12'0 0.0
2018-Nov-05 18:03N 34°41' E 135°12'0 0.0
2018-Nov-05 18:00N 34°41' E 135°12'0 0.0
2018-Nov-05 17:30N 34°41' E 135°12'0 0.0
2018-Nov-05 17:03N 34°41' E 135°12'0 0.0
2018-Nov-05 17:00N 34°41' E 135°12'0 0.0
2018-Nov-05 16:30N 34°41' E 135°12'0 0.0
2018-Nov-05 16:03N 34°41' E 135°12'0 0.0
2018-Nov-05 16:00N 34°41' E 135°12'0 0.0
2018-Nov-05 15:30N 34°41' E 135°12'0 0.0
2018-Nov-05 15:03N 34°41' E 135°12'0 0.0
2018-Nov-05 15:00N 34°41' E 135°12'0 0.0
2018-Nov-05 14:30N 34°41' E 135°12'0 0.0
2018-Nov-05 14:03N 34°41' E 135°12'0 0.0
2018-Nov-05 13:30N 34°41' E 135°12'0 0.0
2018-Nov-05 13:03N 34°41' E 135°12'0 0.0
2018-Nov-05 13:00N 34°41' E 135°12'0 0.0
2018-Nov-05 12:30N 34°41' E 135°12'0 0.0
2018-Nov-05 12:03N 34°41' E 135°12'0 0.0
2018-Nov-05 12:00N 34°41' E 135°12'0 0.0
2018-Nov-05 11:30N 34°41' E 135°12'0 0.0
2018-Nov-05 11:03N 34°41' E 135°12'0 0.0
2018-Nov-05 11:00N 34°41' E 135°12'0 0.0
2018-Nov-05 10:30N 34°41' E 135°12'0 0.0
2018-Nov-05 10:03N 34°41' E 135°12'0 0.0
2018-Nov-05 10:00N 34°41' E 135°12'0 0.0
2018-Nov-05 09:30N 34°41' E 135°12'0 0.0
2018-Nov-05 09:03N 34°41' E 135°12'0 0.0
2018-Nov-05 09:00N 34°41' E 135°12'0 0.0
2018-Nov-05 08:30N 34°41' E 135°12'0 0.0
2018-Nov-05 08:03N 34°41' E 135°12'0 0.0
2018-Nov-05 08:00N 34°41' E 135°12'0 0.0
2018-Nov-05 07:30N 34°41' E 135°12'0 0.0
2018-Nov-05 07:03N 34°41' E 135°12'0 0.0
2018-Nov-05 07:00N 34°41' E 135°12'0 0.0
2018-Nov-05 06:30N 34°41' E 135°12'0 1.0
2018-Nov-05 06:03N 34°41' E 135°13'0 7.4
2018-Nov-05 06:00N 34°41' E 135°13'611.3
2018-Nov-05 05:30N 34°37' E 135°18'510.9
2018-Nov-05 05:03N 34°33' E 135°22'1 9.6
2018-Nov-05 04:59N 34°33' E 135°23'2 1.1
2018-Nov-05 02:45N 34°31' E 135°25'0 0.0
2018-Nov-05 02:19N 34°31' E 135°25'0 0.0
2018-Nov-05 02:02N 34°31' E 135°25'0 0.0
2018-Nov-05 02:00N 34°31' E 135°25'0 0.0
2018-Nov-05 01:30N 34°31' E 135°25'0 0.0
2018-Nov-05 01:03N 34°31' E 135°25'0 0.0
2018-Nov-05 01:00N 34°31' E 135°25'0 0.0
2018-Nov-05 00:30N 34°31' E 135°25'0 0.0
2018-Nov-05 00:03N 34°31' E 135°25'0 0.0
2018-Nov-04 23:59N 34°31' E 135°25'0 0.0
2018-Nov-04 23:30N 34°31' E 135°25'0 0.6
2018-Nov-04 23:03N 34°31' E 135°25'1 8.6
2018-Nov-04 22:57N 34°32' E 135°24'4 9.7
2018-Nov-04 22:30N 34°34' E 135°19'4 9.8
2018-Nov-04 22:03N 34°38' E 135°17'110.1
2018-Nov-04 22:00N 34°38' E 135°16'4 8.6
2018-Nov-04 21:30N 34°41' E 135°12'0 0.1
2018-Nov-04 21:03N 34°41' E 135°12'0 0.0
2018-Nov-04 21:00N 34°41' E 135°12'0 0.0
2018-Nov-04 20:30N 34°41' E 135°12'0 0.0
2018-Nov-04 20:03N 34°41' E 135°12'0 0.0
2018-Nov-04 20:00N 34°41' E 135°12'0 0.0
2018-Nov-04 19:30N 34°41' E 135°12'0 0.0
2018-Nov-04 19:03N 34°41' E 135°12'0 0.0
2018-Nov-04 19:00N 34°41' E 135°12'0 0.0
2018-Nov-04 18:30N 34°41' E 135°12'0 0.0
2018-Nov-04 18:03N 34°41' E 135°12'0 0.0
2018-Nov-04 18:00N 34°41' E 135°12'0 0.0
2018-Nov-04 17:30N 34°41' E 135°12'0 0.0
2018-Nov-04 17:00N 34°41' E 135°12'0 0.0
2018-Nov-04 16:30N 34°41' E 135°12'0 0.0
2018-Nov-04 16:03N 34°41' E 135°12'0 0.0
2018-Nov-04 16:00N 34°41' E 135°12'0 0.0
2018-Nov-04 15:30N 34°41' E 135°12'0 0.0
2018-Nov-04 15:03N 34°41' E 135°12'0 0.0
2018-Nov-04 15:00N 34°41' E 135°12'0 0.0
2018-Nov-04 14:30N 34°41' E 135°12'0 0.0
2018-Nov-04 14:03N 34°41' E 135°12'0 0.0
2018-Nov-04 14:00N 34°41' E 135°12'0 0.0
2018-Nov-04 13:30N 34°41' E 135°12'0 0.0
2018-Nov-04 13:03N 34°41' E 135°12'0 0.0
2018-Nov-04 13:00N 34°41' E 135°12'0 0.0
2018-Nov-04 12:30N 34°41' E 135°12'0 0.0
2018-Nov-04 12:03N 34°41' E 135°12'0 0.0
2018-Nov-04 12:00N 34°41' E 135°12'0 0.0
2018-Nov-04 11:30N 34°41' E 135°12'0 0.0
2018-Nov-04 11:03N 34°41' E 135°12'0 0.0
2018-Nov-04 11:00N 34°41' E 135°12'0 0.0
2018-Nov-04 10:30N 34°41' E 135°12'0 0.0
2018-Nov-04 10:03N 34°41' E 135°12'0 0.0
2018-Nov-04 10:00N 34°41' E 135°12'0 0.0
2018-Nov-04 09:30N 34°41' E 135°12'0 0.0
2018-Nov-04 09:03N 34°41' E 135°12'0 0.0
2018-Nov-04 09:00N 34°41' E 135°12'0 0.0
2018-Nov-04 08:30N 34°41' E 135°12'0 0.0
2018-Nov-04 08:03N 34°41' E 135°12'0 0.0
2018-Nov-04 08:00N 34°41' E 135°12'0 0.0
2018-Nov-04 07:30N 34°41' E 135°12'0 0.0
2018-Nov-04 07:03N 34°41' E 135°12'0 0.0
2018-Nov-04 07:00N 34°41' E 135°12'0 0.0
2018-Nov-04 06:30N 34°41' E 135°12'0 0.0
2018-Nov-04 06:03N 34°41' E 135°12'0 0.0
2018-Nov-04 06:00N 34°41' E 135°12'0 0.0
2018-Nov-04 05:30N 34°41' E 135°12'0 0.0
2018-Nov-04 05:03N 34°41' E 135°12'0 0.0
2018-Nov-04 05:00N 34°41' E 135°12'0 0.0
2018-Nov-04 04:30N 34°41' E 135°12'0 0.0
2018-Nov-04 04:03N 34°41' E 135°12'0 0.0
2018-Nov-04 04:00N 34°41' E 135°12'0 0.0
2018-Nov-04 03:30N 34°41' E 135°12'0 0.0
2018-Nov-04 03:03N 34°41' E 135°12'0 0.0
2018-Nov-04 03:00N 34°41' E 135°12'0 0.0
2018-Nov-04 02:30N 34°41' E 135°12'0 0.0
2018-Nov-04 02:03N 34°41' E 135°12'0 0.0
2018-Nov-04 02:00N 34°41' E 135°12'0 0.0
2018-Nov-04 01:30N 34°41' E 135°12'0 0.0
2018-Nov-04 01:03N 34°41' E 135°12'0 0.0
2018-Nov-04 01:00N 34°41' E 135°12'0 0.0
2018-Nov-04 00:30N 34°41' E 135°12'0 0.0
2018-Nov-04 00:03N 34°41' E 135°12'0 0.0
2018-Nov-04 00:00N 34°41' E 135°12'0 0.0
2018-Nov-03 23:30N 34°41' E 135°12'0 0.0
2018-Nov-03 23:03N 34°41' E 135°12'0 0.0
2018-Nov-03 23:00N 34°41' E 135°12'0 0.0
2018-Nov-03 22:30N 34°41' E 135°12'0 0.0
2018-Nov-03 20:30N 34°41' E 135°12'0 0.0
2018-Nov-03 20:03N 34°41' E 135°12'0 0.0
2018-Nov-03 20:00N 34°41' E 135°12'0 0.0
2018-Nov-03 19:30N 34°41' E 135°12'0 0.0
2018-Nov-03 19:03N 34°41' E 135°12'0 0.0
2018-Nov-03 19:00N 34°41' E 135°12'0 0.0
2018-Nov-03 18:30N 34°41' E 135°12'0 0.0
2018-Nov-03 18:03N 34°41' E 135°12'0 0.0
2018-Nov-03 18:00N 34°41' E 135°12'0 0.0
2018-Nov-03 17:30N 34°41' E 135°12'0 0.0
2018-Nov-03 17:03N 34°41' E 135°12'0 0.0
2018-Nov-03 17:00N 34°41' E 135°12'2 3.1
2018-Nov-03 16:30N 34°41' E 135°14'3 6.9
2018-Nov-03 16:03N 34°40' E 135°18'0 1.4
2018-Nov-03 16:00N 34°40' E 135°18'0 0.0
2018-Nov-03 15:30N 34°40' E 135°18'0 0.0
2018-Nov-03 15:03N 34°40' E 135°18'0 0.0
2018-Nov-03 15:00N 34°40' E 135°18'0 0.0
2018-Nov-03 14:30N 34°40' E 135°18'0 0.0
2018-Nov-03 14:03N 34°40' E 135°18'0 0.0
2018-Nov-03 14:00N 34°40' E 135°18'0 0.0
2018-Nov-03 13:30N 34°40' E 135°18'0 0.0
2018-Nov-03 13:03N 34°40' E 135°18'0 0.0
2018-Nov-03 13:00N 34°40' E 135°18'0 1.0
2018-Nov-03 12:30N 34°39' E 135°17'1 1.8
2018-Nov-03 12:03N 34°38' E 135°17'0 4.0
2018-Nov-03 12:00N 34°38' E 135°17'4 8.8
2018-Nov-03 11:30N 34°41' E 135°12'0 0.5
2018-Nov-03 11:03N 34°41' E 135°12'0 0.0
2018-Nov-03 11:00N 34°41' E 135°12'0 0.0
2018-Nov-03 10:30N 34°41' E 135°12'0 0.0
2018-Nov-03 10:03N 34°41' E 135°12'0 0.0
2018-Nov-03 10:00N 34°41' E 135°12'0 0.0
2018-Nov-03 09:30N 34°41' E 135°12'0 0.0
2018-Nov-03 09:03N 34°41' E 135°12'0 0.0
2018-Nov-03 09:00N 34°41' E 135°12'0 0.0
2018-Nov-03 08:30N 34°41' E 135°12'0 0.0
2018-Nov-03 08:03N 34°41' E 135°12'0 0.0
2018-Nov-03 08:00N 34°41' E 135°12'0 0.0
2018-Nov-03 07:30N 34°41' E 135°12'0 0.0
2018-Nov-03 07:03N 34°41' E 135°12'0 0.0
2018-Nov-03 07:00N 34°41' E 135°12'0 0.0
2018-Nov-03 06:30N 34°41' E 135°12'0 0.0
2018-Nov-03 06:03N 34°41' E 135°12'0 0.0
2018-Nov-03 06:00N 34°41' E 135°12'0 0.0
2018-Nov-03 05:30N 34°41' E 135°12'0 0.0
2018-Nov-03 05:03N 34°41' E 135°12'0 0.0
2018-Nov-03 05:00N 34°41' E 135°12'0 0.0
2018-Nov-03 04:30N 34°41' E 135°12'0 0.0
2018-Nov-03 04:03N 34°41' E 135°12'0 0.0
2018-Nov-03 04:00N 34°41' E 135°12'0 0.0
2018-Nov-03 03:30N 34°41' E 135°12'0 0.0
2018-Nov-03 03:03N 34°41' E 135°12'0 0.0
2018-Nov-03 03:00N 34°41' E 135°12'0 0.0
2018-Nov-03 02:30N 34°41' E 135°12'0 0.0
2018-Nov-03 02:02N 34°41' E 135°12'0 0.0
2018-Nov-03 02:00N 34°41' E 135°12'0 0.0
2018-Nov-03 01:30N 34°41' E 135°12'0 0.0
2018-Nov-03 01:03N 34°41' E 135°12'0 0.0
2018-Nov-03 01:00N 34°41' E 135°12'0 0.0
2018-Nov-03 00:30N 34°41' E 135°12'0 0.0
2018-Nov-03 00:03N 34°41' E 135°12'0 0.0
2018-Nov-03 00:00N 34°41' E 135°12'0 0.0
2018-Nov-02 23:30N 34°41' E 135°12'0 0.0
2018-Nov-02 23:03N 34°41' E 135°12'0 0.0
2018-Nov-02 23:00N 34°41' E 135°12'0 0.0
2018-Nov-02 22:30N 34°41' E 135°12'0 0.0
2018-Nov-02 22:03N 34°41' E 135°12'0 0.0
2018-Nov-02 22:00N 34°41' E 135°12'0 0.0
2018-Nov-02 21:30N 34°41' E 135°12'0 0.0
2018-Nov-02 21:03N 34°41' E 135°12'0 0.0
2018-Nov-02 21:00N 34°41' E 135°12'0 0.0
2018-Nov-02 20:30N 34°41' E 135°12'0 0.0
2018-Nov-02 20:03N 34°41' E 135°12'0 0.0
2018-Nov-02 20:00N 34°41' E 135°12'0 0.0
2018-Nov-02 19:30N 34°41' E 135°12'0 0.0
2018-Nov-02 19:03N 34°41' E 135°12'0 0.0
2018-Nov-02 19:00N 34°41' E 135°12'0 0.0
2018-Nov-02 18:30N 34°41' E 135°12'0 0.0
2018-Nov-02 18:03N 34°41' E 135°12'0 0.0
2018-Nov-02 18:00N 34°41' E 135°12'0 0.0
2018-Nov-02 17:30N 34°41' E 135°12'0 0.0
2018-Nov-02 17:03N 34°41' E 135°12'0 0.0
2018-Nov-02 17:00N 34°41' E 135°12'0 0.0
2018-Nov-02 16:30N 34°41' E 135°12'0 0.0
2018-Nov-02 16:03N 34°41' E 135°12'0 0.0
2018-Nov-02 16:00N 34°41' E 135°12'0 0.0
2018-Nov-02 15:30N 34°41' E 135°12'0 0.0
2018-Nov-02 15:03N 34°41' E 135°12'0 0.0
2018-Nov-02 15:00N 34°41' E 135°12'0 0.0
2018-Nov-02 14:30N 34°41' E 135°12'0 0.0
2018-Nov-02 14:00N 34°41' E 135°12'0 0.0
2018-Nov-02 13:30N 34°41' E 135°12'0 0.0
2018-Nov-02 13:03N 34°41' E 135°12'0 0.0
2018-Nov-02 13:00N 34°41' E 135°12'0 0.0
2018-Nov-02 12:30N 34°41' E 135°12'0 0.0
2018-Nov-02 12:03N 34°41' E 135°12'0 0.0
2018-Nov-02 12:00N 34°41' E 135°12'0 0.0
2018-Nov-02 11:30N 34°41' E 135°12'0 0.0
2018-Nov-02 11:03N 34°41' E 135°12'0 0.0
2018-Nov-02 11:00N 34°41' E 135°12'0 0.0
2018-Nov-02 10:30N 34°41' E 135°12'0 0.0
2018-Nov-02 10:03N 34°41' E 135°12'0 0.0
2018-Nov-02 10:00N 34°41' E 135°12'0 0.0
2018-Nov-02 09:30N 34°41' E 135°12'0 0.0
2018-Nov-02 09:03N 34°41' E 135°12'0 0.0
2018-Nov-02 09:00N 34°41' E 135°12'0 0.0
2018-Nov-02 08:30N 34°41' E 135°12'0 0.0
2018-Nov-02 08:03N 34°41' E 135°12'0 0.1
2018-Nov-02 08:00N 34°41' E 135°12'0 0.7
2018-Nov-02 07:30N 34°41' E 135°13'0 0.0
2018-Nov-02 07:03N 34°41' E 135°13'0 0.0
2018-Nov-02 07:00N 34°41' E 135°13'0 0.0
2018-Nov-02 06:30N 34°41' E 135°13'0 0.0
2018-Nov-02 06:03N 34°41' E 135°13'0 0.0
2018-Nov-02 06:00N 34°41' E 135°13'0 0.0
2018-Nov-02 05:30N 34°41' E 135°13'0 0.0
2018-Nov-02 05:03N 34°41' E 135°13'0 0.0
2018-Nov-02 05:00N 34°41' E 135°13'3 5.7
2018-Nov-02 04:30N 34°41' E 135°16'510.2
2018-Nov-02 04:01N 34°41' E 135°22'012.1
2018-Nov-02 04:00N 34°41' E 135°22'2 3.7
2018-Nov-02 03:30N 34°42' E 135°24'0 0.8
2018-Nov-02 03:03N 34°42' E 135°23'0 0.0
2018-Nov-02 03:00N 34°42' E 135°23'0 0.0
2018-Nov-02 02:21N 34°42' E 135°23'0 0.0
2018-Nov-02 01:47N 34°42' E 135°23'0 0.0
2018-Nov-02 01:28N 34°42' E 135°23'0 0.0
2018-Nov-02 00:59N 34°42' E 135°23'0 0.0
2018-Nov-02 00:55N 34°42' E 135°23'0 0.0
2018-Nov-02 00:36N 34°42' E 135°23'0 0.1
2018-Nov-02 00:30N 34°42' E 135°23'0 0.0
2018-Nov-02 00:03N 34°42' E 135°23'0 0.0
2018-Nov-02 00:00N 34°42' E 135°23'0 0.0
2018-Nov-01 23:30N 34°42' E 135°23'0 0.0
2018-Nov-01 23:03N 34°42' E 135°23'0 0.0
2018-Nov-01 23:00N 34°42' E 135°23'0 0.4
2018-Nov-01 22:30N 34°42' E 135°24'0 0.7
2018-Nov-01 22:03N 34°42' E 135°24'0 3.3
2018-Nov-01 22:00N 34°42' E 135°24'4 8.4
2018-Nov-01 21:30N 34°42' E 135°18'410.0
2018-Nov-01 21:03N 34°41' E 135°13'0 8.4
2018-Nov-01 21:00N 34°41' E 135°13'0 0.8
2018-Nov-01 20:30N 34°41' E 135°12'0 0.0
2018-Nov-01 20:03N 34°41' E 135°12'0 0.0
2018-Nov-01 20:00N 34°41' E 135°12'0 0.0
2018-Nov-01 19:30N 34°41' E 135°12'0 0.0
2018-Nov-01 19:03N 34°41' E 135°12'0 0.0
2018-Nov-01 19:00N 34°41' E 135°12'0 0.0
2018-Nov-01 18:30N 34°41' E 135°12'0 0.0
2018-Nov-01 18:03N 34°41' E 135°12'0 0.0
2018-Nov-01 18:00N 34°41' E 135°12'0 0.0
2018-Nov-01 17:30N 34°41' E 135°12'0 0.0
2018-Nov-01 17:03N 34°41' E 135°12'0 0.0
2018-Nov-01 17:00N 34°41' E 135°12'0 0.0
2018-Nov-01 16:30N 34°41' E 135°12'0 0.0
2018-Nov-01 16:03N 34°41' E 135°12'0 0.0
2018-Nov-01 16:00N 34°41' E 135°12'0 0.0
2018-Nov-01 15:30N 34°41' E 135°12'0 0.0
2018-Nov-01 15:03N 34°41' E 135°12'0 0.0
2018-Nov-01 15:00N 34°41' E 135°12'0 0.0
2018-Nov-01 14:30N 34°41' E 135°12'0 0.0
2018-Nov-01 14:00N 34°41' E 135°12'0 0.0
2018-Nov-01 13:30N 34°41' E 135°12'0 0.0
2018-Nov-01 13:03N 34°41' E 135°12'0 0.0
2018-Nov-01 13:00N 34°41' E 135°12'0 0.0
2018-Nov-01 12:30N 34°41' E 135°12'0 0.0
2018-Nov-01 12:03N 34°41' E 135°12'0 0.0
2018-Nov-01 12:00N 34°41' E 135°12'0 0.0
2018-Nov-01 11:30N 34°41' E 135°12'0 0.0
2018-Nov-01 11:03N 34°41' E 135°12'0 0.0
2018-Nov-01 11:00N 34°41' E 135°12'0 0.0
2018-Nov-01 10:30N 34°41' E 135°12'0 0.0
2018-Nov-01 10:03N 34°41' E 135°12'0 0.0
2018-Nov-01 10:00N 34°41' E 135°12'0 0.0
2018-Nov-01 09:30N 34°41' E 135°12'0 0.0
2018-Nov-01 09:03N 34°41' E 135°12'0 0.0
2018-Nov-01 09:00N 34°41' E 135°12'0 0.0
2018-Nov-01 08:30N 34°41' E 135°12'0 0.0
2018-Nov-01 08:02N 34°41' E 135°12'0 0.0
2018-Nov-01 08:00N 34°41' E 135°12'0 0.0
2018-Nov-01 07:30N 34°41' E 135°12'0 0.0
2018-Nov-01 07:03N 34°41' E 135°12'0 0.0
2018-Nov-01 07:00N 34°41' E 135°12'0 0.4
2018-Nov-01 06:30N 34°41' E 135°12'0 0.6
2018-Nov-01 06:02N 34°41' E 135°12'0 0.0
2018-Nov-01 06:00N 34°41' E 135°12'0 0.0
2018-Nov-01 05:30N 34°41' E 135°12'0 0.0
2018-Nov-01 05:03N 34°41' E 135°12'0 0.0
2018-Nov-01 05:00N 34°41' E 135°12'0 0.0
2018-Nov-01 04:30N 34°41' E 135°12'0 0.0
2018-Nov-01 04:03N 34°41' E 135°12'0 0.0
2018-Nov-01 04:00N 34°41' E 135°12'0 0.2
2018-Nov-01 03:30N 34°41' E 135°12'3 7.6
2018-Nov-01 03:03N 34°41' E 135°16'011.2
2018-Nov-01 03:00N 34°41' E 135°17'510.6
2018-Nov-01 02:30N 34°41' E 135°23'1 2.0
2018-Nov-01 02:03N 34°42' E 135°24'0 3.6
2018-Nov-01 02:00N 34°42' E 135°24'0 0.2
2018-Nov-01 01:15N 34°42' E 135°23'0 0.0
2018-Oct-31 23:53N 34°42' E 135°23'0 0.0
2018-Oct-31 22:19N 34°42' E 135°23'0 1.3
2018-Oct-31 22:03N 34°42' E 135°24'0 2.1
2018-Oct-31 22:00N 34°42' E 135°24'2 4.1
2018-Oct-31 21:30N 34°41' E 135°22'510.5
2018-Oct-31 21:03N 34°38' E 135°17'010.4
2018-Oct-31 21:00N 34°38' E 135°17'4 9.0
2018-Oct-31 20:30N 34°38' E 135°11'1 3.1
2018-Oct-31 20:03N 34°39' E 135°12'0 1.0
2018-Oct-31 20:00N 34°39' E 135°12'0 0.1
2018-Oct-31 19:30N 34°39' E 135°12'0 0.0
2018-Oct-31 19:03N 34°39' E 135°12'0 0.0
2018-Oct-31 19:00N 34°39' E 135°12'0 0.0
2018-Oct-31 18:30N 34°39' E 135°12'0 0.0
2018-Oct-31 18:03N 34°39' E 135°12'0 0.0
2018-Oct-31 18:00N 34°39' E 135°12'0 0.0
2018-Oct-31 17:30N 34°39' E 135°12'0 0.0
2018-Oct-31 17:03N 34°39' E 135°12'0 0.1
2018-Oct-31 17:00N 34°39' E 135°12'0 0.0
2018-Oct-31 16:30N 34°39' E 135°12'0 0.1
2018-Oct-31 16:03N 34°39' E 135°12'0 0.0
2018-Oct-31 16:00N 34°39' E 135°12'0 0.1
2018-Oct-31 15:30N 34°39' E 135°12'0 0.0
2018-Oct-31 15:03N 34°39' E 135°12'0 0.0
2018-Oct-31 15:00N 34°39' E 135°12'0 0.0
2018-Oct-31 14:03N 34°39' E 135°12'0 0.0
2018-Oct-31 14:00N 34°39' E 135°12'0 0.0
2018-Oct-31 13:30N 34°39' E 135°12'0 0.0
2018-Oct-31 13:03N 34°39' E 135°12'0 0.0
2018-Oct-31 13:00N 34°39' E 135°12'  

Dump ship's entire track history